sensor_id;sensor_type;location;lat;lon;timestamp;pressure;altitude;pressure_sealevel;temperature
47484;BMP280;54076;50.322;18.650;2023-07-31T00:00:32;156654.03;;;13.59
47484;BMP280;54076;50.322;18.650;2023-07-31T00:05:33;156546.55;;;13.54
47484;BMP280;54076;50.322;18.650;2023-07-31T00:10:34;156111.28;;;13.33
47484;BMP280;54076;50.322;18.650;2023-07-31T00:15:35;155902.31;;;13.24
47484;BMP280;54076;50.322;18.650;2023-07-31T00:20:36;156064.72;;;13.31
47484;BMP280;54076;50.322;18.650;2023-07-31T00:25:37;155831.78;;;13.22
47484;BMP280;54076;50.322;18.650;2023-07-31T00:30:39;155783.22;;;13.20
47484;BMP280;54076;50.322;18.650;2023-07-31T00:35:40;155449.22;;;13.03
47484;BMP280;54076;50.322;18.650;2023-07-31T00:40:41;155691.22;;;13.16
47484;BMP280;54076;50.322;18.650;2023-07-31T00:45:42;155647.75;;;13.14
47484;BMP280;54076;50.322;18.650;2023-07-31T00:50:43;155678.72;;;13.15
47484;BMP280;54076;50.322;18.650;2023-07-31T00:55:44;155269.08;;;12.93
47484;BMP280;54076;50.322;18.650;2023-07-31T01:00:45;155245.86;;;12.92
47484;BMP280;54076;50.322;18.650;2023-07-31T01:06:06;154950.13;;;12.77
47484;BMP280;54076;50.322;18.650;2023-07-31T01:11:43;154654.78;;;12.61
47484;BMP280;54076;50.322;18.650;2023-07-31T01:16:47;154552.70;;;12.56
47484;BMP280;54076;50.322;18.650;2023-07-31T01:22:24;154412.20;;;12.50
47484;BMP280;54076;50.322;18.650;2023-07-31T01:27:34;154251.05;;;12.42
47484;BMP280;54076;50.322;18.650;2023-07-31T01:32:40;154047.22;;;12.30
47484;BMP280;54076;50.322;18.650;2023-07-31T01:37:41;153821.41;;;12.19
47484;BMP280;54076;50.322;18.650;2023-07-31T01:42:42;154032.20;;;12.30
47484;BMP280;54076;50.322;18.650;2023-07-31T01:47:43;153777.86;;;12.17
47484;BMP280;54076;50.322;18.650;2023-07-31T01:52:44;153771.34;;;12.16
47484;BMP280;54076;50.322;18.650;2023-07-31T01:57:45;153741.84;;;12.15
47484;BMP280;54076;50.322;18.650;2023-07-31T02:02:46;153582.61;;;12.07
47484;BMP280;54076;50.322;18.650;2023-07-31T02:07:46;153530.28;;;12.05
47484;BMP280;54076;50.322;18.650;2023-07-31T02:12:48;153477.22;;;12.03
47484;BMP280;54076;50.322;18.650;2023-07-31T02:17:49;153559.75;;;12.07
47484;BMP280;54076;50.322;18.650;2023-07-31T02:22:49;153915.80;;;12.24
47484;BMP280;54076;50.322;18.650;2023-07-31T02:27:50;153969.53;;;12.27
47484;BMP280;54076;50.322;18.650;2023-07-31T02:32:51;153973.56;;;12.27
47484;BMP280;54076;50.322;18.650;2023-07-31T02:37:52;154008.45;;;12.29
47484;BMP280;54076;50.322;18.650;2023-07-31T02:42:53;153737.59;;;12.15
47484;BMP280;54076;50.322;18.650;2023-07-31T02:47:54;153770.63;;;12.16
47484;BMP280;54076;50.322;18.650;2023-07-31T02:52:55;153718.00;;;12.14
47484;BMP280;54076;50.322;18.650;2023-07-31T02:57:56;153911.53;;;12.24
47484;BMP280;54076;50.322;18.650;2023-07-31T03:02:56;153988.98;;;12.28
47484;BMP280;54076;50.322;18.650;2023-07-31T03:07:57;153932.30;;;12.24
47484;BMP280;54076;50.322;18.650;2023-07-31T03:12:58;153761.48;;;12.14
47484;BMP280;54076;50.322;18.650;2023-07-31T03:17:59;153737.28;;;12.13
47484;BMP280;54076;50.322;18.650;2023-07-31T03:23:00;153577.53;;;12.05
47484;BMP280;54076;50.322;18.650;2023-07-31T03:28:01;154035.52;;;12.28
47484;BMP280;54076;50.322;18.650;2023-07-31T03:33:02;153944.78;;;12.22
47484;BMP280;54076;50.322;18.650;2023-07-31T03:38:03;153950.72;;;12.21
47484;BMP280;54076;50.322;18.650;2023-07-31T03:43:05;154074.02;;;12.28
47484;BMP280;54076;50.322;18.650;2023-07-31T03:48:06;154272.31;;;12.37
47484;BMP280;54076;50.322;18.650;2023-07-31T03:53:08;154565.05;;;12.51
47484;BMP280;54076;50.322;18.650;2023-07-31T03:58:09;154720.84;;;12.58
47484;BMP280;54076;50.322;18.650;2023-07-31T04:03:10;154703.84;;;12.57
47484;BMP280;54076;50.322;18.650;2023-07-31T04:08:11;154724.53;;;12.57
47484;BMP280;54076;50.322;18.650;2023-07-31T04:13:11;154939.38;;;12.67
47484;BMP280;54076;50.322;18.650;2023-07-31T04:18:12;155078.84;;;12.72
47484;BMP280;54076;50.322;18.650;2023-07-31T04:23:13;155077.84;;;12.72
47484;BMP280;54076;50.322;18.650;2023-07-31T04:28:14;155359.42;;;12.86
47484;BMP280;54076;50.322;18.650;2023-07-31T04:33:15;155432.78;;;12.90
47484;BMP280;54076;50.322;18.650;2023-07-31T04:38:16;155302.16;;;12.83
47484;BMP280;54076;50.322;18.650;2023-07-31T04:43:16;155582.75;;;12.96
47484;BMP280;54076;50.322;18.650;2023-07-31T04:48:17;155747.98;;;13.02
47484;BMP280;54076;50.322;18.650;2023-07-31T04:53:18;155585.17;;;12.94
47484;BMP280;54076;50.322;18.650;2023-07-31T04:58:19;155885.33;;;13.04
47484;BMP280;54076;50.322;18.650;2023-07-31T05:03:20;156317.34;;;13.21
47484;BMP280;54076;50.322;18.650;2023-07-31T05:08:21;156595.22;;;13.32
47484;BMP280;54076;50.322;18.650;2023-07-31T05:13:22;156364.13;;;13.23
47484;BMP280;54076;50.322;18.650;2023-07-31T05:18:23;156773.03;;;13.38
47484;BMP280;54076;50.322;18.650;2023-07-31T05:23:24;156937.17;;;13.47
47484;BMP280;54076;50.322;18.650;2023-07-31T05:28:25;156431.33;;;13.25
47484;BMP280;54076;50.322;18.650;2023-07-31T05:33:25;156460.42;;;13.27
47484;BMP280;54076;50.322;18.650;2023-07-31T05:38:26;157731.30;;;13.88
47484;BMP280;54076;50.322;18.650;2023-07-31T05:43:27;157993.41;;;13.99
47484;BMP280;54076;50.322;18.650;2023-07-31T05:48:28;158150.92;;;14.07
47484;BMP280;54076;50.322;18.650;2023-07-31T05:53:29;158897.83;;;14.42
47484;BMP280;54076;50.322;18.650;2023-07-31T05:58:30;158996.33;;;14.46
47484;BMP280;54076;50.322;18.650;2023-07-31T06:03:31;159070.81;;;14.51
47484;BMP280;54076;50.322;18.650;2023-07-31T06:08:31;159121.84;;;14.54
47484;BMP280;54076;50.322;18.650;2023-07-31T06:13:33;159309.20;;;14.63
47484;BMP280;54076;50.322;18.650;2023-07-31T06:18:34;159722.41;;;14.85
47484;BMP280;54076;50.322;18.650;2023-07-31T06:23:35;159785.36;;;14.89
47484;BMP280;54076;50.322;18.650;2023-07-31T06:28:36;159730.67;;;14.88
47484;BMP280;54076;50.322;18.650;2023-07-31T06:33:37;159426.28;;;14.72
47484;BMP280;54076;50.322;18.650;2023-07-31T06:38:38;159691.86;;;14.86
47484;BMP280;54076;50.322;18.650;2023-07-31T06:43:39;159532.63;;;14.78
47484;BMP280;54076;50.322;18.650;2023-07-31T06:48:39;159744.47;;;14.88
47484;BMP280;54076;50.322;18.650;2023-07-31T06:53:40;159354.95;;;14.66
47484;BMP280;54076;50.322;18.650;2023-07-31T06:58:42;159349.59;;;14.67
47484;BMP280;54076;50.322;18.650;2023-07-31T07:03:42;159479.53;;;14.76
47484;BMP280;54076;50.322;18.650;2023-07-31T07:08:43;159391.19;;;14.71
47484;BMP280;54076;50.322;18.650;2023-07-31T07:13:44;159873.70;;;14.95
47484;BMP280;54076;50.322;18.650;2023-07-31T07:18:45;160321.45;;;15.20
47484;BMP280;54076;50.322;18.650;2023-07-31T07:23:46;160444.06;;;15.25
47484;BMP280;54076;50.322;18.650;2023-07-31T07:28:47;160623.05;;;15.36
47484;BMP280;54076;50.322;18.650;2023-07-31T07:33:48;160447.11;;;15.28
47484;BMP280;54076;50.322;18.650;2023-07-31T07:38:48;160376.25;;;15.24
47484;BMP280;54076;50.322;18.650;2023-07-31T07:43:49;160824.55;;;15.49
47484;BMP280;54076;50.322;18.650;2023-07-31T07:48:50;160483.84;;;15.31
47484;BMP280;54076;50.322;18.650;2023-07-31T07:53:51;160912.53;;;15.55
47484;BMP280;54076;50.322;18.650;2023-07-31T07:58:53;161234.84;;;15.74
47484;BMP280;54076;50.322;18.650;2023-07-31T08:03:54;161162.97;;;15.70
47484;BMP280;54076;50.322;18.650;2023-07-31T08:08:55;161051.78;;;15.65
47484;BMP280;54076;50.322;18.650;2023-07-31T08:13:56;161434.03;;;15.84
47484;BMP280;54076;50.322;18.650;2023-07-31T08:18:57;161721.30;;;16.00
47484;BMP280;54076;50.322;18.650;2023-07-31T08:23:58;161916.80;;;16.17
47484;BMP280;54076;50.322;18.650;2023-07-31T08:28:59;161808.53;;;16.07
47484;BMP280;54076;50.322;18.650;2023-07-31T08:34:00;162187.97;;;16.28
47484;BMP280;54076;50.322;18.650;2023-07-31T08:39:01;162677.64;;;16.55
47484;BMP280;54076;50.322;18.650;2023-07-31T08:44:02;163143.97;;;16.93
47484;BMP280;54076;50.322;18.650;2023-07-31T08:49:04;162138.72;;;16.24
47484;BMP280;54076;50.322;18.650;2023-07-31T08:54:06;162866.08;;;16.71
47484;BMP280;54076;50.322;18.650;2023-07-31T08:59:08;163652.61;;;17.13
47484;BMP280;54076;50.322;18.650;2023-07-31T09:04:10;163452.98;;;17.05
47484;BMP280;54076;50.322;18.650;2023-07-31T09:09:13;163195.80;;;16.87
47484;BMP280;54076;50.322;18.650;2023-07-31T09:14:15;163395.58;;;16.99
47484;BMP280;54076;50.322;18.650;2023-07-31T09:19:24;163614.63;;;17.15
47484;BMP280;54076;50.322;18.650;2023-07-31T09:24:31;163743.13;;;17.24
47484;BMP280;54076;50.322;18.650;2023-07-31T09:29:32;164994.88;;;17.98
47484;BMP280;54076;50.322;18.650;2023-07-31T09:34:38;164855.36;;;17.88
47484;BMP280;54076;50.322;18.650;2023-07-31T09:39:49;165789.73;;;18.49
47484;BMP280;54076;50.322;18.650;2023-07-31T09:45:06;165368.23;;;18.25
47484;BMP280;54076;50.322;18.650;2023-07-31T09:50:08;164779.95;;;17.90
47484;BMP280;54076;50.322;18.650;2023-07-31T09:55:10;164445.72;;;17.67
47484;BMP280;54076;50.322;18.650;2023-07-31T10:00:13;165125.23;;;18.04
47484;BMP280;54076;50.322;18.650;2023-07-31T10:05:15;165084.97;;;18.10
47484;BMP280;54076;50.322;18.650;2023-07-31T10:10:23;164645.75;;;17.79
47484;BMP280;54076;50.322;18.650;2023-07-31T10:15:25;165806.16;;;18.59
47484;BMP280;54076;50.322;18.650;2023-07-31T10:20:27;166284.66;;;18.81
47484;BMP280;54076;50.322;18.650;2023-07-31T10:25:30;167539.69;;;19.78
47484;BMP280;54076;50.322;18.650;2023-07-31T10:30:33;167269.72;;;19.51
47484;BMP280;54076;50.322;18.650;2023-07-31T10:35:35;167155.31;;;19.41
47484;BMP280;54076;50.322;18.650;2023-07-31T10:40:36;167948.47;;;20.18
47484;BMP280;54076;50.322;18.650;2023-07-31T10:45:42;168536.80;;;20.64
47484;BMP280;54076;50.322;18.650;2023-07-31T10:50:55;168528.52;;;20.66
47484;BMP280;54076;50.322;18.650;2023-07-31T10:56:04;167324.27;;;19.56
47484;BMP280;54076;50.322;18.650;2023-07-31T11:01:06;167322.16;;;19.67
47484;BMP280;54076;50.322;18.650;2023-07-31T11:06:07;168361.41;;;20.53
47484;BMP280;54076;50.322;18.650;2023-07-31T11:11:10;170166.28;;;21.94
47484;BMP280;54076;50.322;18.650;2023-07-31T11:16:13;170152.91;;;21.94
47484;BMP280;54076;50.322;18.650;2023-07-31T11:21:16;170366.16;;;22.15
47484;BMP280;54076;50.322;18.650;2023-07-31T11:26:18;169639.06;;;21.59
47484;BMP280;54076;50.322;18.650;2023-07-31T11:31:19;167959.59;;;20.26
47484;BMP280;54076;50.322;18.650;2023-07-31T11:36:20;167391.70;;;19.75
47484;BMP280;54076;50.322;18.650;2023-07-31T11:41:21;167343.23;;;19.70
47484;BMP280;54076;50.322;18.650;2023-07-31T11:46:22;167155.92;;;19.50
47484;BMP280;54076;50.322;18.650;2023-07-31T11:51:23;166480.44;;;19.00
47484;BMP280;54076;50.322;18.650;2023-07-31T11:56:25;165975.09;;;18.69
47484;BMP280;54076;50.322;18.650;2023-07-31T12:01:27;166467.17;;;19.00
47484;BMP280;54076;50.322;18.650;2023-07-31T12:06:35;166690.03;;;19.12
47484;BMP280;54076;50.322;18.650;2023-07-31T12:11:47;166801.63;;;19.21
47484;BMP280;54076;50.322;18.650;2023-07-31T12:16:56;167232.78;;;19.55
47484;BMP280;54076;50.322;18.650;2023-07-31T12:21:59;167630.97;;;19.91
47484;BMP280;54076;50.322;18.650;2023-07-31T12:27:08;167406.75;;;19.73
47484;BMP280;54076;50.322;18.650;2023-07-31T12:32:23;167833.44;;;20.11
47484;BMP280;54076;50.322;18.650;2023-07-31T12:37:26;168545.22;;;20.73
47484;BMP280;54076;50.322;18.650;2023-07-31T12:42:27;168208.78;;;20.48
47484;BMP280;54076;50.322;18.650;2023-07-31T12:47:28;169071.91;;;21.12
47484;BMP280;54076;50.322;18.650;2023-07-31T12:52:28;169619.59;;;21.56
47484;BMP280;54076;50.322;18.650;2023-07-31T12:57:30;169133.28;;;21.19
47484;BMP280;54076;50.322;18.650;2023-07-31T13:02:31;170077.20;;;21.90
47484;BMP280;54076;50.322;18.650;2023-07-31T13:07:31;169456.09;;;21.47
47484;BMP280;54076;50.322;18.650;2023-07-31T13:12:33;168749.80;;;20.89
47484;BMP280;54076;50.322;18.650;2023-07-31T13:17:35;168914.22;;;21.01
47484;BMP280;54076;50.322;18.650;2023-07-31T13:22:36;168939.78;;;21.02
47484;BMP280;54076;50.322;18.650;2023-07-31T13:27:37;168481.11;;;20.69
47484;BMP280;54076;50.322;18.650;2023-07-31T13:32:38;169513.05;;;21.47
47484;BMP280;54076;50.322;18.650;2023-07-31T13:37:39;168948.47;;;21.06
47484;BMP280;54076;50.322;18.650;2023-07-31T13:42:40;168615.22;;;20.80
47484;BMP280;54076;50.322;18.650;2023-07-31T13:47:41;169074.67;;;21.16
47484;BMP280;54076;50.322;18.650;2023-07-31T13:52:42;168469.78;;;20.71
47484;BMP280;54076;50.322;18.650;2023-07-31T13:57:43;168219.45;;;20.53
47484;BMP280;54076;50.322;18.650;2023-07-31T14:02:44;168099.53;;;20.44
47484;BMP280;54076;50.322;18.650;2023-07-31T14:07:44;167644.28;;;19.99
47484;BMP280;54076;50.322;18.650;2023-07-31T14:12:46;167620.91;;;19.99
47484;BMP280;54076;50.322;18.650;2023-07-31T14:17:47;167415.28;;;19.85
47484;BMP280;54076;50.322;18.650;2023-07-31T14:22:47;167204.16;;;19.62
47484;BMP280;54076;50.322;18.650;2023-07-31T14:27:48;167192.03;;;19.59
47484;BMP280;54076;50.322;18.650;2023-07-31T14:32:49;167070.47;;;19.48
47484;BMP280;54076;50.322;18.650;2023-07-31T14:37:50;167262.39;;;19.63
47484;BMP280;54076;50.322;18.650;2023-07-31T14:42:51;167357.72;;;19.72
47484;BMP280;54076;50.322;18.650;2023-07-31T14:47:52;168017.63;;;20.29
47484;BMP280;54076;50.322;18.650;2023-07-31T14:52:53;168597.44;;;20.77
47484;BMP280;54076;50.322;18.650;2023-07-31T14:57:54;168351.09;;;20.59
47484;BMP280;54076;50.322;18.650;2023-07-31T15:02:54;168602.50;;;20.80
47484;BMP280;54076;50.322;18.650;2023-07-31T15:07:55;168274.28;;;20.58
47484;BMP280;54076;50.322;18.650;2023-07-31T15:12:56;169523.69;;;21.48
47484;BMP280;54076;50.322;18.650;2023-07-31T15:17:57;169962.36;;;21.85
47484;BMP280;54076;50.322;18.650;2023-07-31T15:22:58;170224.63;;;22.06
47484;BMP280;54076;50.322;18.650;2023-07-31T15:27:59;170026.84;;;21.90
47484;BMP280;54076;50.322;18.650;2023-07-31T15:33:00;170430.72;;;22.22
47484;BMP280;54076;50.322;18.650;2023-07-31T15:38:01;169116.67;;;21.22
47484;BMP280;54076;50.322;18.650;2023-07-31T15:43:01;168408.70;;;20.68
47484;BMP280;54076;50.322;18.650;2023-07-31T15:48:03;168771.27;;;20.98
47484;BMP280;54076;50.322;18.650;2023-07-31T15:53:04;169742.91;;;21.79
47484;BMP280;54076;50.322;18.650;2023-07-31T15:58:05;170588.22;;;22.37
47484;BMP280;54076;50.322;18.650;2023-07-31T16:03:06;171921.45;;;23.53
47484;BMP280;54076;50.322;18.650;2023-07-31T16:08:07;172704.92;;;24.26
47484;BMP280;54076;50.322;18.650;2023-07-31T16:13:09;173066.38;;;24.61
47484;BMP280;54076;50.322;18.650;2023-07-31T16:18:09;173445.53;;;24.99
47484;BMP280;54076;50.322;18.650;2023-07-31T16:23:10;171379.81;;;23.09
47484;BMP280;54076;50.322;18.650;2023-07-31T16:28:11;170743.28;;;22.51
47484;BMP280;54076;50.322;18.650;2023-07-31T16:33:12;171843.63;;;23.47
47484;BMP280;54076;50.322;18.650;2023-07-31T16:38:13;173304.52;;;24.85
47484;BMP280;54076;50.322;18.650;2023-07-31T16:43:14;174666.47;;;26.24
47484;BMP280;54076;50.322;18.650;2023-07-31T16:48:15;175561.33;;;27.30
47484;BMP280;54076;50.322;18.650;2023-07-31T16:53:16;176213.09;;;28.06
47484;BMP280;54076;50.322;18.650;2023-07-31T16:58:17;175714.22;;;27.48
47484;BMP280;54076;50.322;18.650;2023-07-31T17:03:18;176128.55;;;27.95
47484;BMP280;54076;50.322;18.650;2023-07-31T17:08:19;176014.34;;;27.82
47484;BMP280;54076;50.322;18.650;2023-07-31T17:13:20;175513.70;;;27.26
47484;BMP280;54076;50.322;18.650;2023-07-31T17:18:21;175133.16;;;26.80
47484;BMP280;54076;50.322;18.650;2023-07-31T17:23:22;174253.03;;;25.82
47484;BMP280;54076;50.322;18.650;2023-07-31T17:28:23;172532.53;;;24.12
47484;BMP280;54076;50.322;18.650;2023-07-31T17:33:24;170759.34;;;22.70
47484;BMP280;54076;50.322;18.650;2023-07-31T17:38:25;168830.41;;;21.12
47484;BMP280;54076;50.322;18.650;2023-07-31T17:43:26;171118.28;;;22.81
47484;BMP280;54076;50.322;18.650;2023-07-31T17:48:27;172727.47;;;24.30
47484;BMP280;54076;50.322;18.650;2023-07-31T17:53:28;173055.00;;;24.62
47484;BMP280;54076;50.322;18.650;2023-07-31T17:58:28;170489.22;;;22.37
47484;BMP280;54076;50.322;18.650;2023-07-31T18:03:29;169475.58;;;21.48
47484;BMP280;54076;50.322;18.650;2023-07-31T18:08:30;169237.38;;;21.34
47484;BMP280;54076;50.322;18.650;2023-07-31T18:13:31;167876.42;;;20.28
47484;BMP280;54076;50.322;18.650;2023-07-31T18:18:32;167315.25;;;19.79
47484;BMP280;54076;50.322;18.650;2023-07-31T18:23:33;166243.91;;;19.09
47484;BMP280;54076;50.322;18.650;2023-07-31T18:28:34;165442.19;;;18.58
47484;BMP280;54076;50.322;18.650;2023-07-31T18:33:35;165027.86;;;18.31
47484;BMP280;54076;50.322;18.650;2023-07-31T18:38:36;164888.59;;;18.23
47484;BMP280;54076;50.322;18.650;2023-07-31T18:43:37;164644.63;;;18.08
47484;BMP280;54076;50.322;18.650;2023-07-31T18:48:38;164312.52;;;17.87
47484;BMP280;54076;50.322;18.650;2023-07-31T18:53:39;164124.75;;;17.75
47484;BMP280;54076;50.322;18.650;2023-07-31T18:58:39;163270.72;;;17.22
47484;BMP280;54076;50.322;18.650;2023-07-31T19:03:40;162808.22;;;16.96
47484;BMP280;54076;50.322;18.650;2023-07-31T19:08:41;162875.78;;;17.01
47484;BMP280;54076;50.322;18.650;2023-07-31T19:13:43;162799.19;;;16.96
47484;BMP280;54076;50.322;18.650;2023-07-31T19:18:45;162535.30;;;16.80
47484;BMP280;54076;50.322;18.650;2023-07-31T19:23:46;162014.75;;;16.49
47484;BMP280;54076;50.322;18.650;2023-07-31T19:28:47;161605.61;;;16.25
47484;BMP280;54076;50.322;18.650;2023-07-31T19:33:50;161367.30;;;16.11
47484;BMP280;54076;50.322;18.650;2023-07-31T19:38:52;161226.03;;;16.04
47484;BMP280;54076;50.322;18.650;2023-07-31T19:43:53;161353.20;;;16.11
47484;BMP280;54076;50.322;18.650;2023-07-31T19:48:53;161579.91;;;16.23
47484;BMP280;54076;50.322;18.650;2023-07-31T19:53:54;161402.83;;;16.13
47484;BMP280;54076;50.322;18.650;2023-07-31T19:58:55;161519.28;;;16.20
47484;BMP280;54076;50.322;18.650;2023-07-31T20:03:56;161249.53;;;16.04
47484;BMP280;54076;50.322;18.650;2023-07-31T20:08:57;161158.70;;;15.99
47484;BMP280;54076;50.322;18.650;2023-07-31T20:14:04;161337.00;;;16.10
47484;BMP280;54076;50.322;18.650;2023-07-31T20:19:07;161342.88;;;16.10
47484;BMP280;54076;50.322;18.650;2023-07-31T20:24:09;161244.47;;;16.04
47484;BMP280;54076;50.322;18.650;2023-07-31T20:29:10;161244.84;;;16.04
47484;BMP280;54076;50.322;18.650;2023-07-31T20:34:11;161463.16;;;16.17
47484;BMP280;54076;50.322;18.650;2023-07-31T20:39:12;161307.13;;;16.08
47484;BMP280;54076;50.322;18.650;2023-07-31T20:44:13;161255.66;;;16.05
47484;BMP280;54076;50.322;18.650;2023-07-31T20:49:14;160746.34;;;15.75
47484;BMP280;54076;50.322;18.650;2023-07-31T20:54:15;160640.47;;;15.69
47484;BMP280;54076;50.322;18.650;2023-07-31T20:59:18;160555.72;;;15.65
47484;BMP280;54076;50.322;18.650;2023-07-31T21:04:19;160378.86;;;15.55
47484;BMP280;54076;50.322;18.650;2023-07-31T21:09:20;160432.19;;;15.57
47484;BMP280;54076;50.322;18.650;2023-07-31T21:14:21;160051.84;;;15.37
47484;BMP280;54076;50.322;18.650;2023-07-31T21:19:22;159909.16;;;15.28
47484;BMP280;54076;50.322;18.650;2023-07-31T21:24:23;159690.58;;;15.17
47484;BMP280;54076;50.322;18.650;2023-07-31T21:29:23;159675.70;;;15.16
47484;BMP280;54076;50.322;18.650;2023-07-31T21:34:27;159773.11;;;15.21
47484;BMP280;54076;50.322;18.650;2023-07-31T21:39:28;159680.66;;;15.16
47484;BMP280;54076;50.322;18.650;2023-07-31T21:44:29;160037.16;;;15.36
47484;BMP280;54076;50.322;18.650;2023-07-31T21:49:30;159649.70;;;15.15
47484;BMP280;54076;50.322;18.650;2023-07-31T21:54:31;159242.34;;;14.94
47484;BMP280;54076;50.322;18.650;2023-07-31T21:59:31;159341.33;;;14.98
47484;BMP280;54076;50.322;18.650;2023-07-31T22:04:32;159365.52;;;15.00
47484;BMP280;54076;50.322;18.650;2023-07-31T22:09:33;159426.53;;;15.03
47484;BMP280;54076;50.322;18.650;2023-07-31T22:14:34;159748.50;;;15.19
47484;BMP280;54076;50.322;18.650;2023-07-31T22:19:35;159525.80;;;15.08
47484;BMP280;54076;50.322;18.650;2023-07-31T22:24:36;158951.94;;;14.79
47484;BMP280;54076;50.322;18.650;2023-07-31T22:29:38;158955.72;;;14.79
47484;BMP280;54076;50.322;18.650;2023-07-31T22:34:39;159026.05;;;14.83
47484;BMP280;54076;50.322;18.650;2023-07-31T22:39:40;159123.83;;;14.88
47484;BMP280;54076;50.322;18.650;2023-07-31T22:44:41;158869.05;;;14.74
47484;BMP280;54076;50.322;18.650;2023-07-31T22:49:42;158902.70;;;14.74
47484;BMP280;54076;50.322;18.650;2023-07-31T22:54:43;158958.70;;;14.77
47484;BMP280;54076;50.322;18.650;2023-07-31T22:59:44;158781.31;;;14.70
47484;BMP280;54076;50.322;18.650;2023-07-31T23:04:44;158616.47;;;14.61
47484;BMP280;54076;50.322;18.650;2023-07-31T23:09:45;158488.88;;;14.55
47484;BMP280;54076;50.322;18.650;2023-07-31T23:14:46;158380.28;;;14.49
47484;BMP280;54076;50.322;18.650;2023-07-31T23:19:47;158512.53;;;14.56
47484;BMP280;54076;50.322;18.650;2023-07-31T23:24:48;158491.64;;;14.54
47484;BMP280;54076;50.322;18.650;2023-07-31T23:29:49;158748.84;;;14.68
47484;BMP280;54076;50.322;18.650;2023-07-31T23:34:50;158430.28;;;14.52
47484;BMP280;54076;50.322;18.650;2023-07-31T23:39:51;158340.53;;;14.47
47484;BMP280;54076;50.322;18.650;2023-07-31T23:44:51;158034.78;;;14.32
47484;BMP280;54076;50.322;18.650;2023-07-31T23:49:52;158058.58;;;14.33
47484;BMP280;54076;50.322;18.650;2023-07-31T23:54:54;158014.55;;;14.31
47484;BMP280;54076;50.322;18.650;2023-07-31T23:59:55;157857.67;;;14.23
